Latest Weather Observations for Merriwa

IDN60801

Issued at 11:05 pm EST Thursday 31 July 2014 (issued every 30 minutes, with the page automatically refreshed every 10 minutes)

About weather observations | Map of weather stations | Latest weather observations for NSW | Other Formats
Station Details ID: 061287 Name: MERRIWA (ROSCOMMON) Lat: -32.19 Lon: 150.17 Height: 375.0 m
Data from the previous 72 hours. | See also: Recent months at Merriwa
Date/Time
EST
Temp
°C
App
Temp
°C
Dew
Point
Rel
Hum
%
Delta-T
°C
Wind Press
QNH
hPa
Press
MSL
hPa
Rain
since 9 am
mm
Dir
 
Spd
km/h
Gust
km/h
Spd
kts
Gust
kts
31/11:00pm 9.5 4.3 0.1 52 3.9 NW 17 17 9 9 1010.9 - 0.0
31/10:30pm 6.0 1.2 0.3 67 2.3 NW 15 17 8 9 1011.1 - 0.0
31/10:00pm 7.5 3.7 -0.5 57 3.2 W 9 13 5 7 1011.3 - 0.0
31/09:30pm 9.7 5.5 -1.1 47 4.3 WNW 11 13 6 7 1011.4 - 0.0
31/09:00pm 10.7 5.4 -0.4 46 4.6 NNW 17 19 9 10 1011.3 1011.9 0.0
31/08:30pm 9.4 4.6 0.1 52 3.8 NNW 15 19 8 10 1011.3 - 0.0
31/08:00pm 8.8 4.3 0.0 54 3.6 NNW 13 13 7 7 1011.4 - 0.0
31/07:30pm 9.2 4.4 0.4 54 3.6 NNW 15 17 8 9 1011.6 - 0.0
31/07:00pm 10.1 5.4 0.7 52 3.9 NW 15 15 8 8 1012.0 - 0.0
31/06:30pm 9.6 4.5 0.5 53 3.8 NW 17 17 9 9 1012.1 - 0.0
31/06:00pm 12.6 7.1 0.4 43 5.2 NW 19 20 10 11 1012.2 1012.7 0.0
31/05:30pm 14.6 8.8 0.1 37 6.2 NW 20 22 11 12 1012.0 - 0.0
31/05:00pm 17.9 11.8 0.1 30 7.9 NW 22 28 12 15 1012.0 - 0.0
31/04:30pm 19.4 13.3 0.4 28 8.6 NW 22 33 12 18 1012.1 - 0.0
31/04:00pm 20.4 13.5 0.3 26 9.1 WNW 26 39 14 21 1012.2 - 0.0
31/03:30pm 20.7 13.0 0.0 25 9.4 NW 30 39 16 21 1012.5 - 0.0
31/03:00pm 21.1 12.9 0.3 25 9.5 WNW 33 44 18 24 1012.6 1013.1 0.0
31/02:33pm 21.4 13.5 1.1 26 9.5 NW 32 50 17 27 1013.1 - 0.0
31/02:30pm 21.2 13.0 0.4 25 9.5 NW 33 50 18 27 1013.1 - 0.0
31/02:00pm 21.6 12.6 0.2 24 9.8 NW 37 52 20 28 1013.6 - 0.0
31/01:30pm 21.2 12.6 0.4 25 9.5 NW 35 46 19 25 1014.1 - 0.0
31/01:09pm 21.2 13.9 2.5 29 8.9 NW 30 48 16 26 1014.6 - 0.0
31/01:00pm 21.2 12.9 2.0 28 9.1 NW 35 48 19 26 1014.8 - 0.0
31/12:30pm 20.9 13.0 2.2 29 8.9 NW 33 44 18 24 1015.4 - 0.0
31/12:00pm 21.6 14.4 2.8 29 9.1 NW 30 43 16 23 1016.0 1016.6 0.0
31/11:30am 20.9 12.4 1.2 27 9.2 NW 35 48 19 26 1016.7 - 0.0
31/11:00am 20.8 12.9 2.1 29 8.8 WNW 33 48 18 26 1017.3 - 0.0
31/10:55am 20.3 12.8 1.2 28 8.8 WNW 30 48 16 26 1017.5 - 0.0
31/10:54am 20.4 13.4 1.8 29 8.7 WNW 28 41 15 22 1017.5 - 0.0
31/10:30am 17.8 15.9 7.5 51 5.3 SW 7 9 4 5 1017.9 - 0.0
31/10:00am 15.1 13.3 7.9 62 3.7 S 7 11 4 6 1018.2 - 0.0
31/09:30am 13.0 10.8 6.1 63 3.3 S 7 9 4 5 1018.4 - 0.0
31/09:00am 11.8 9.6 5.2 64 3.1 WSW 6 9 3 5 1018.5 1019.1 0.0
31/08:30am 9.6 7.4 6.0 78 1.7 WSW 7 11 4 6 1018.8 - 0.0
31/08:00am 6.3 5.4 6.2 99 0.0 CALM 0 0 0 0 1018.9 - 0.0
31/07:30am 2.6 -0.4 2.3 98 0.1 W 7 7 4 4 1018.7 - 0.0
31/07:00am 1.9 0.2 1.6 98 0.1 CALM 0 0 0 0 1018.4 - 0.0
31/06:30am 2.7 1.1 2.6 99 0.0 CALM 0 0 0 0 1018.4 - 0.0
31/06:00am 1.5 -0.3 1.2 98 0.1 CALM 0 0 0 0 1018.4 1019.0 0.0
31/05:30am 2.3 0.6 2.0 98 0.1 CALM 0 0 0 0 1018.2 - 0.0
31/05:00am 2.3 0.6 2.0 98 0.1 CALM 0 0 0 0 1018.1 - 0.0
31/04:30am 2.1 0.4 1.7 97 0.2 W 0 0 0 0 1018.1 - 0.0
31/04:00am 2.6 0.9 1.9 95 0.3 CALM 0 0 0 0 1018.1 - 0.0
31/03:30am 2.9 1.2 2.0 94 0.4 CALM 0 0 0 0 1018.1 - 0.0
31/03:00am 3.5 0.5 2.3 92 0.5 NNW 7 9 4 5 1018.4 1019.0 0.0
31/02:30am 5.0 1.4 3.0 87 0.8 WNW 11 11 6 6 1018.4 - 0.0
31/02:00am 4.3 1.1 3.3 93 0.4 W 9 11 5 6 1018.7 - 0.0
31/01:30am 4.4 1.3 3.4 93 0.4 W 9 9 5 5 1018.9 - 0.0
31/01:00am 4.7 1.6 3.4 91 0.6 W 9 9 5 5 1018.9 - 0.0
31/12:30am 5.1 1.9 3.1 87 0.8 W 9 9 5 5 1019.1 - 0.0
31/12:00am 7.0 3.9 3.4 78 1.6 W 9 9 5 5 1019.5 1020.1 0.0
 
Date/Time
EST
Temp
°C
App
Temp
°C
Dew
Point
Rel
Hum
%
Delta-T
°C
Wind Press
QNH
hPa
Press
MSL
hPa
Rain
since 9 am
mm
Dir
 
Spd
km/h
Gust
km/h
Spd
kts
Gust
kts
30/11:30pm 8.0 4.9 3.5 73 2.0 WNW 9 11 5 6 1019.8 - 0.0
30/11:00pm 8.7 5.3 4.1 73 2.1 NW 11 13 6 7 1019.9 - 0.0
30/10:30pm 8.8 5.5 4.6 75 1.9 WNW 11 13 6 7 1020.0 - 0.0
30/10:00pm 8.9 5.4 5.5 79 1.6 WNW 13 15 7 8 1020.3 - 0.0
30/09:30pm 8.3 5.2 5.4 82 1.3 WNW 11 13 6 7 1020.4 - 0.0
30/09:00pm 9.3 6.7 6.2 81 1.5 WNW 9 11 5 6 1020.5 1021.1 0.0
30/08:30pm 9.1 6.1 5.8 80 1.5 NW 11 13 6 7 1020.4 - 0.0
30/08:00pm 10.0 6.6 6.0 76 1.9 WNW 13 15 7 8 1020.4 - 0.0
30/07:30pm 10.4 6.7 6.2 75 2.0 WNW 15 17 8 9 1020.1 - 0.0
30/07:00pm 11.0 7.7 6.2 72 2.3 W 13 15 7 8 1019.9 - 0.0
30/06:30pm 12.7 9.8 6.7 67 2.9 W 11 15 6 8 1019.6 - 0.0
30/06:00pm 11.4 8.0 6.1 70 2.5 WNW 13 15 7 8 1019.3 1019.9 0.0
30/05:30pm 13.5 10.9 6.1 61 3.6 WNW 9 11 5 6 1019.2 - 0.0
30/05:00pm 16.9 13.9 6.1 49 5.4 WNW 11 15 6 8 1019.1 - 0.0
30/04:30pm 18.9 15.9 6.1 43 6.5 WNW 11 15 6 8 1018.9 - 0.0
30/04:00pm 19.4 15.2 5.8 41 6.8 WNW 17 24 9 13 1019.0 - 0.0
30/03:30pm 19.4 14.8 5.5 40 7.0 WNW 19 28 10 15 1019.2 - 0.0
30/03:00pm 19.8 15.0 5.8 40 7.0 W 20 30 11 16 1019.2 1019.8 0.0
30/02:30pm 19.7 14.4 5.0 38 7.3 W 22 35 12 19 1019.4 - 0.0
30/02:00pm 20.1 15.1 4.6 36 7.7 W 20 32 11 17 1019.4 - 0.0
30/01:30pm 19.6 14.6 4.5 37 7.4 W 20 32 11 17 1019.3 - 0.0
30/01:00pm 19.6 14.0 5.6 40 7.0 WNW 24 35 13 19 1019.5 - 0.0
30/12:30pm 19.4 13.1 5.5 40 7.0 WNW 28 39 15 21 1019.9 - 0.0
30/12:00pm 18.7 12.7 5.2 41 6.7 WNW 26 39 14 21 1020.6 1021.2 0.0
30/11:30am 18.6 13.8 5.8 43 6.4 WNW 20 28 11 15 1021.2 - 0.0
30/11:00am 18.0 13.1 5.2 43 6.3 WNW 20 28 11 15 1021.8 - 0.0
30/10:30am 17.5 12.7 4.8 43 6.2 WNW 19 26 10 14 1022.2 - 0.0
30/10:00am 16.7 11.9 4.4 44 5.9 WNW 19 28 10 15 1022.7 - 0.0
30/09:30am 16.3 11.7 3.7 43 5.9 WNW 17 24 9 13 1022.7 - 0.0
30/09:00am 14.6 10.3 3.1 46 5.3 NW 15 19 8 10 1022.7 1023.4 0.0
30/08:30am 12.9 8.9 3.0 51 4.5 NW 13 17 7 9 1022.6 - 0.0
30/08:00am 10.7 7.5 3.0 59 3.4 WNW 9 13 5 7 1022.5 - 0.0
30/07:30am 8.1 4.3 1.9 65 2.6 WNW 11 13 6 7 1022.0 - 0.0
30/07:00am 6.6 2.7 1.3 69 2.2 WNW 11 13 6 7 1021.7 - 0.0
30/06:30am 5.2 1.4 1.7 78 1.4 NW 11 13 6 7 1021.3 - 0.0
30/06:00am 5.0 1.5 1.1 76 1.6 W 9 15 5 8 1021.0 1021.6 0.0
30/05:30am 6.8 2.7 2.5 74 1.8 WNW 13 15 7 8 1020.7 - 0.0
30/05:00am 5.0 1.0 2.7 85 1.0 WNW 13 15 7 8 1020.3 - 0.0
30/04:30am 3.4 0.0 2.1 91 0.5 W 9 11 5 6 1020.1 - 0.0
30/04:00am 3.2 0.1 1.6 89 0.6 W 7 11 4 6 1020.1 - 0.0
30/03:30am 3.7 0.2 1.3 84 1.0 SSW 9 11 5 6 1020.0 - 0.0
30/03:00am 4.8 1.4 1.8 81 1.2 WSW 9 11 5 6 1019.8 1020.5 0.0
30/02:30am 6.4 2.3 2.5 76 1.6 W 13 15 7 8 1019.5 - 0.0
30/02:00am 6.2 2.5 2.1 75 1.7 WSW 11 13 6 7 1019.6 - 0.0
30/01:30am 6.0 2.3 2.1 76 1.6 WSW 11 13 6 7 1019.8 - 0.0
30/01:00am 5.3 2.2 1.1 74 1.7 W 7 13 4 7 1020.0 - 0.0
30/12:30am 6.4 2.2 1.9 73 1.9 WNW 13 13 7 7 1020.0 - 0.0
30/12:00am 7.0 2.8 1.9 70 2.1 NW 13 15 7 8 1020.1 1020.8 0.0
 
Date/Time
EST
Temp
°C
App
Temp
°C
Dew
Point
Rel
Hum
%
Delta-T
°C
Wind Press
QNH
hPa
Press
MSL
hPa
Rain
since 9 am
mm
Dir
 
Spd
km/h
Gust
km/h
Spd
kts
Gust
kts
29/11:30pm 7.8 3.3 2.1 67 2.4 NW 15 19 8 10 1020.3 - 0.0
29/11:00pm 10.4 5.2 2.7 59 3.4 NNW 19 24 10 13 1020.5 - 0.0
29/10:30pm 10.5 5.2 2.8 59 3.4 NNW 20 24 11 13 1020.5 - 0.0
29/10:00pm 10.6 5.2 2.7 58 3.5 NNW 20 26 11 14 1020.3 - 0.0
29/09:30pm 11.4 6.3 3.2 57 3.7 NNW 19 26 10 14 1020.4 - 0.0
29/09:00pm 10.5 6.2 3.3 61 3.2 N 15 19 8 10 1020.4 1021.0 0.0
29/08:30pm 9.4 5.5 3.2 65 2.7 N 13 17 7 9 1020.5 - 0.0
29/08:00pm 10.2 6.0 3.7 64 2.9 NNW 15 19 8 10 1020.6 - 0.0
29/07:30pm 8.9 5.3 2.9 66 2.6 NNW 11 17 6 9 1020.6 - 0.0
29/07:00pm 9.8 6.2 3.1 63 3.0 NNW 11 15 6 8 1020.3 - 0.0
29/06:30pm 10.0 5.7 3.5 64 2.9 NW 15 17 8 9 1019.8 - 0.0
29/06:00pm 10.9 6.6 3.5 60 3.3 NW 15 17 8 9 1019.4 1020.0 0.0
29/05:30pm 13.0 8.6 2.5 49 4.7 WNW 15 19 8 10 1019.1 - 0.0
29/05:00pm 15.7 10.0 2.8 42 5.9 NW 22 28 12 15 1018.5 - 0.0
29/04:30pm 17.0 10.5 2.6 38 6.7 WNW 26 33 14 18 1018.5 - 0.0
29/04:00pm 17.8 12.1 2.9 37 7.0 WNW 22 32 12 17 1018.6 - 0.0
29/03:30pm 18.1 10.8 2.4 35 7.3 WNW 30 43 16 23 1018.0 - 0.0
29/03:00pm 18.1 10.5 2.8 36 7.2 WNW 32 41 17 22 1018.2 1018.8 0.0
29/02:30pm 18.3 11.2 3.4 37 7.1 WNW 30 37 16 20 1018.7 - 0.0
29/02:00pm 19.1 12.7 3.3 35 7.6 WNW 26 35 14 19 1019.3 - 0.0
29/01:30pm 18.6 11.6 2.0 33 7.7 W 28 39 15 21 1019.4 - 0.0
29/01:00pm 18.4 11.5 2.7 35 7.4 WNW 28 37 15 20 1019.6 - 0.0
29/12:30pm 18.6 11.7 2.4 34 7.6 WNW 28 39 15 21 1019.7 - 0.0
29/12:00pm 18.2 11.7 2.9 36 7.2 W 26 39 14 21 1020.7 1021.3 0.0
29/11:30am 17.7 11.4 3.6 39 6.7 NW 26 33 14 18 1021.4 - 0.0
29/11:00am 17.5 11.3 4.1 41 6.4 WNW 26 35 14 19 1022.1 - 0.0
29/10:30am 16.1 11.5 5.4 49 5.2 WNW 19 24 10 13 1022.5 - 0.0
29/10:00am 13.6 11.7 6.9 64 3.3 N 6 9 3 5 1022.4 - 0.0
29/09:30am 10.8 8.7 5.8 71 2.4 W 6 9 3 5 1022.6 - 0.0
29/09:00am 8.6 6.6 6.2 85 1.1 W 6 7 3 4 1022.6 1023.3 0.0
29/08:30am 6.5 5.6 6.2 98 0.1 CALM 0 0 0 0 1022.6 - 0.0
29/08:00am 4.7 3.5 4.6 99 0.0 CALM 0 0 0 0 1022.3 - 0.0
29/07:30am 0.6 -1.3 0.5 99 0.0 CALM 0 0 0 0 1022.1 - 0.0
29/07:00am -0.5 -3.0 -0.8 98 0.1 W 2 7 1 4 1021.9 - 0.0
29/06:30am 1.6 -0.2 1.5 99 0.0 CALM 0 0 0 0 1021.6 - 0.0
29/06:00am 0.0 -2.4 -0.1 99 0.0 W 2 6 1 3 1021.1 1021.7 0.0
29/05:30am 0.5 -2.6 0.2 98 0.1 W 6 9 3 5 1020.9 - 0.0
29/05:00am 1.1 -1.9 0.8 98 0.1 W 6 7 3 4 1020.7 - 0.0
29/04:30am 1.5 -1.6 1.2 98 0.1 W 7 9 4 5 1020.8 - 0.0
29/04:00am 2.2 -0.8 1.9 98 0.1 W 7 11 4 6 1020.8 - 0.0
29/03:30am 3.3 0.1 3.0 98 0.1 W 9 13 5 7 1020.6 - 0.0
29/03:00am 2.6 -0.7 2.3 98 0.1 W 9 11 5 6 1020.4 1021.0 0.0
29/02:30am 2.5 -0.8 2.2 98 0.1 W 9 13 5 7 1020.5 - 0.0
29/02:00am 3.1 -0.1 2.8 98 0.1 W 9 11 5 6 1020.8 - 0.0
29/01:30am 3.5 0.2 2.6 94 0.4 W 9 13 5 7 1020.9 - 0.0
29/01:00am 3.9 0.5 1.8 86 0.8 SW 9 13 5 7 1021.0 - 0.0
29/12:30am 8.3 3.7 3.9 74 1.9 NNW 17 20 9 11 1021.1 - 0.0
29/12:00am 7.0 3.0 4.8 86 1.0 NNW 15 20 8 11 1021.5 1022.1 0.0
 
Date/Time
EST
Temp
°C
App
Temp
°C
Dew
Point
Rel
Hum
%
Delta-T
°C
Wind Press
QNH
hPa
Press
MSL
hPa
Rain
since 9 am
mm
Dir
 
Spd
km/h
Gust
km/h
Spd
kts
Gust
kts
28/11:30pm 4.8 1.6 2.8 87 0.8 WNW 9 11 5 6 1021.9 - 0.0

Other Formats:

Comma delimited format used in spreadsheet applications
http://www.bom.gov.au/fwo/IDN60801/IDN60801.95754.axf

JavaScript Object Notation format (JSON) in row-major order
http://www.bom.gov.au/fwo/IDN60801/IDN60801.95754.json